Time;durP1;ratioP1;P1;durP2;ratioP2;P2;SDS_P1;SDS_P2;PMS_P1;PMS_P2;Temp;Humidity;BMP_temperature;BMP_pressure;BME280_temperature;BME280_humidity;BME280_pressure;Samples;Min_cycle;Max_cycle;Signal;HPM_P1;HPM_P2
2021/06/12 00:00:18;;;;;;;20.83;14.15;;;;;;;;;;5030613;28;20460;-64
2021/06/12 00:02:44;;;;;;;18.90;13.40;;;;;;;;;;5013127;28;20503;-65
2021/06/12 00:05:10;;;;;;;19.15;13.45;;;;;;;;;;5030656;28;20076;-63
2021/06/12 00:07:37;;;;;;;18.20;13.55;;;;;;;;;;5032523;28;20032;-63
2021/06/12 00:10:08;;;;;;;18.90;14.13;;;;;;;;;;5014734;28;20024;-63
2021/06/12 00:12:34;;;;;;;20.50;13.82;;;;;;;;;;5014717;28;20037;-62
2021/06/12 00:15:00;;;;;;;22.50;15.02;;;;;;;;;;5031878;28;20037;-63
2021/06/12 00:17:26;;;;;;;19.83;13.77;;;;;;;;;;5031910;28;20049;-63
2021/06/12 00:19:52;;;;;;;21.05;14.55;;;;;;;;;;5032127;28;20539;-62
2021/06/12 00:22:17;;;;;;;21.00;15.32;;;;;;;;;;5031695;28;20064;-63
2021/06/12 00:24:43;;;;;;;20.33;14.63;;;;;;;;;;5014029;28;20045;-65
2021/06/12 00:27:10;;;;;;;20.38;14.20;;;;;;;;;;5014162;28;20021;-62
2021/06/12 00:29:36;;;;;;;20.25;14.23;;;;;;;;;;5031750;28;20060;-63
2021/06/12 00:32:02;;;;;;;21.83;15.43;;;;;;;;;;5031758;28;20485;-65
2021/06/12 00:34:28;;;;;;;22.48;14.88;;;;;;;;;;5031480;28;20057;-64
2021/06/12 00:36:54;;;;;;;21.52;14.80;;;;;;;;;;5031811;28;20060;-65
2021/06/12 00:39:20;;;;;;;20.10;14.38;;;;;;;;;;5031682;28;20393;-64
2021/06/12 00:41:46;;;;;;;21.75;15.02;;;;;;;;;;5031613;28;20033;-65
2021/06/12 00:44:12;;;;;;;20.27;14.95;;;;;;;;;;5031835;28;20033;-64
2021/06/12 00:46:38;;;;;;;23.58;15.15;;;;;;;;;;5031928;28;20018;-64
2021/06/12 00:49:04;;;;;;;21.98;14.45;;;;;;;;;;5031351;28;20048;-63
2021/06/12 00:51:30;;;;;;;21.55;15.10;;;;;;;;;;5031550;28;20381;-63
2021/06/12 00:53:56;;;;;;;23.60;15.73;;;;;;;;;;5031438;28;20017;-64
2021/06/12 00:56:22;;;;;;;21.48;14.68;;;;;;;;;;5031212;28;20029;-63
2021/06/12 00:58:50;;;;;;;24.23;15.38;;;;;;;;;;5031614;28;20025;-64
2021/06/12 01:01:20;;;;;;;22.08;15.25;;;;;;;;;;5031586;28;20382;-65
2021/06/12 01:03:46;;;;;;;22.42;16.55;;;;;;;;;;5031509;28;20164;-64
2021/06/12 01:06:16;;;;;;;22.30;15.65;;;;;;;;;;5031041;28;20100;-64
2021/06/12 01:08:43;;;;;;;24.10;16.23;;;;;;;;;;5031426;28;20018;-63
2021/06/12 01:11:09;;;;;;;24.08;16.83;;;;;;;;;;5031202;28;20053;-63
2021/06/12 01:13:54;;;;;;;21.05;15.75;;;;;;;;;;5031287;28;20045;-63
2021/06/12 01:16:26;;;;;;;24.05;16.98;;;;;;;;;;5013106;28;20508;-64
2021/06/12 01:18:52;;;;;;;25.65;18.08;;;;;;;;;;5031245;28;20443;-64
2021/06/12 01:21:21;;;;;;;28.02;17.25;;;;;;;;;;5013523;28;20392;-64
2021/06/12 01:24:06;;;;;;;23.95;17.10;;;;;;;;;;5013849;28;20032;-65
2021/06/12 01:26:41;;;;;;;25.52;17.67;;;;;;;;;;5031364;28;20448;-62
2021/06/12 01:29:26;;;;;;;25.02;18.15;;;;;;;;;;5035152;28;20025;-64
2021/06/12 01:31:53;;;;;;;25.90;17.63;;;;;;;;;;5016868;28;20408;-63
2021/06/12 01:34:20;;;;;;;26.85;18.35;;;;;;;;;;5034553;28;20496;-63
2021/06/12 01:36:47;;;;;;;23.50;16.60;;;;;;;;;;5000910;28;20432;-63
2021/06/12 01:39:13;;;;;;;24.50;18.00;;;;;;;;;;5034797;28;20033;-63
2021/06/12 01:41:41;;;;;;;28.55;18.50;;;;;;;;;;5034709;28;20029;-64
2021/06/12 01:44:08;;;;;;;25.88;18.33;;;;;;;;;;5016836;28;20106;-63
2021/06/12 01:46:35;;;;;;;28.02;19.17;;;;;;;;;;5034355;28;20021;-62
2021/06/12 01:49:03;;;;;;;29.63;18.85;;;;;;;;;;5016820;28;20025;-62
2021/06/12 01:51:29;;;;;;;26.58;19.05;;;;;;;;;;5034839;28;20029;-63
2021/06/12 01:53:56;;;;;;;27.17;19.33;;;;;;;;;;5016601;28;20389;-63
2021/06/12 01:56:26;;;;;;;27.85;20.10;;;;;;;;;;5016621;28;20021;-63
2021/06/12 01:58:53;;;;;;;28.95;19.17;;;;;;;;;;5034420;28;20100;-64
2021/06/12 02:01:20;;;;;;;27.52;19.85;;;;;;;;;;5034777;28;20021;-62
2021/06/12 02:03:46;;;;;;;28.45;20.73;;;;;;;;;;5034136;28;20040;-65
2021/06/12 02:06:14;;;;;;;30.60;21.42;;;;;;;;;;5033953;28;20087;-63
2021/06/12 02:08:41;;;;;;;28.17;20.13;;;;;;;;;;5017430;28;20109;-64
2021/06/12 02:11:07;;;;;;;28.63;20.05;;;;;;;;;;5017713;28;20022;-64
2021/06/12 02:13:33;;;;;;;29.02;20.35;;;;;;;;;;5035105;28;20341;-64
2021/06/12 02:15:59;;;;;;;31.17;20.60;;;;;;;;;;5034979;28;20551;-64
2021/06/12 02:18:27;;;;;;;28.30;20.55;;;;;;;;;;5017702;28;20057;-64
2021/06/12 02:20:53;;;;;;;28.80;20.90;;;;;;;;;;5017418;28;20095;-61
2021/06/12 02:23:20;;;;;;;31.70;21.00;;;;;;;;;;5017715;28;20438;-64
2021/06/12 02:25:47;;;;;;;28.90;19.83;;;;;;;;;;5034637;28;20025;-62
2021/06/12 02:28:14;;;;;;;28.45;20.63;;;;;;;;;;5035613;28;20035;-63
2021/06/12 02:30:56;;;;;;;28.05;20.77;;;;;;;;;;5034161;28;20079;-63
2021/06/12 02:33:23;;;;;;;31.00;20.90;;;;;;;;;;5016365;28;20029;-64
2021/06/12 02:35:49;;;;;;;29.10;21.02;;;;;;;;;;5034703;28;20366;-64
2021/06/12 02:38:15;;;;;;;33.15;22.05;;;;;;;;;;5034977;28;20022;-64
2021/06/12 02:40:41;;;;;;;31.13;21.25;;;;;;;;;;5016708;28;20030;-64
2021/06/12 02:43:07;;;;;;;31.40;21.77;;;;;;;;;;5015753;28;20124;-64
2021/06/12 02:45:33;;;;;;;28.90;20.73;;;;;;;;;;5033246;28;20025;-63
2021/06/12 02:48:04;;;;;;;33.05;22.55;;;;;;;;;;5033375;28;20091;-63
2021/06/12 02:50:32;;;;;;;34.42;23.38;;;;;;;;;;5032848;28;20025;-64
2021/06/12 02:53:01;;;;;;;33.63;23.27;;;;;;;;;;5015441;28;20079;-64
2021/06/12 02:55:28;;;;;;;33.95;23.05;;;;;;;;;;5033302;28;20025;-63
2021/06/12 02:57:55;;;;;;;33.55;22.90;;;;;;;;;;5033299;28;20504;-64
2021/06/12 03:00:21;;;;;;;31.35;21.77;;;;;;;;;;5033309;28;20025;-63
2021/06/12 03:02:48;;;;;;;33.45;23.42;;;;;;;;;;5015280;28;20084;-63
2021/06/12 03:05:19;;;;;;;32.67;22.77;;;;;;;;;;5015111;28;20017;-62
2021/06/12 03:07:48;;;;;;;30.38;22.05;;;;;;;;;;5015404;28;20056;-63
2021/06/12 03:10:15;;;;;;;32.30;22.45;;;;;;;;;;5033066;28;20385;-62
2021/06/12 03:12:42;;;;;;;32.70;23.30;;;;;;;;;;5032846;28;20025;-63
2021/06/12 03:15:09;;;;;;;35.92;23.63;;;;;;;;;;5032778;28;20057;-63
2021/06/12 03:17:36;;;;;;;29.50;21.85;;;;;;;;;;5032896;28;20037;-62
2021/06/12 03:20:03;;;;;;;31.02;22.30;;;;;;;;;;5015237;28;20037;-63
2021/06/12 03:22:29;;;;;;;31.55;22.15;;;;;;;;;;5014799;28;20548;-63
2021/06/12 03:24:56;;;;;;;38.78;23.23;;;;;;;;;;5032240;28;20029;-64
2021/06/12 03:27:22;;;;;;;30.88;20.70;;;;;;;;;;5032551;28;20030;-64
2021/06/12 03:29:48;;;;;;;33.28;21.20;;;;;;;;;;5014788;28;20026;-63
2021/06/12 03:32:14;;;;;;;31.83;22.27;;;;;;;;;;5014772;28;20033;-64
2021/06/12 03:34:40;;;;;;;32.22;21.80;;;;;;;;;;5032145;28;20496;-61
2021/06/12 03:37:07;;;;;;;29.40;20.10;;;;;;;;;;5032766;28;20083;-63
2021/06/12 03:39:33;;;;;;;33.50;22.30;;;;;;;;;;5032287;28;20389;-63
2021/06/12 03:41:59;;;;;;;28.33;20.80;;;;;;;;;;5032249;28;20025;-64
2021/06/12 03:44:26;;;;;;;32.80;21.10;;;;;;;;;;5014057;28;20031;-63
2021/06/12 03:46:53;;;;;;;30.98;20.05;;;;;;;;;;5032264;28;20083;-63
2021/06/12 03:49:19;;;;;;;29.67;19.27;;;;;;;;;;5032296;28;20075;-63
2021/06/12 03:51:46;;;;;;;32.63;20.45;;;;;;;;;;5031302;28;20092;-62
2021/06/12 03:54:12;;;;;;;31.48;20.20;;;;;;;;;;5014158;28;20032;-62
2021/06/12 03:56:39;;;;;;;31.58;21.25;;;;;;;;;;5032087;28;20060;-62
2021/06/12 03:59:07;;;;;;;29.63;21.02;;;;;;;;;;5014323;28;20036;-63
2021/06/12 04:01:33;;;;;;;28.13;18.93;;;;;;;;;;5031784;28;20112;-64
2021/06/12 04:03:59;;;;;;;27.95;18.98;;;;;;;;;;5031480;28;20284;-62
2021/06/12 04:06:24;;;;;;;32.33;20.70;;;;;;;;;;5031880;28;20025;-63
2021/06/12 04:08:50;;;;;;;31.38;20.80;;;;;;;;;;5031832;28;20026;-63
2021/06/12 04:11:17;;;;;;;29.02;20.85;;;;;;;;;;5014305;28;20457;-63
2021/06/12 04:13:43;;;;;;;28.40;19.85;;;;;;;;;;5031747;28;20309;-63
2021/06/12 04:16:09;;;;;;;31.65;19.92;;;;;;;;;;5031735;28;20506;-63
2021/06/12 04:18:36;;;;;;;30.90;19.55;;;;;;;;;;5031500;28;20026;-63
2021/06/12 04:21:03;;;;;;;27.88;19.52;;;;;;;;;;5031776;28;20033;-63
2021/06/12 04:23:29;;;;;;;29.10;19.25;;;;;;;;;;5013795;28;20577;-62
2021/06/12 04:25:55;;;;;;;29.65;19.83;;;;;;;;;;5031420;28;20061;-62
2021/06/12 04:28:21;;;;;;;28.17;19.58;;;;;;;;;;5031639;28;20064;-63
2021/06/12 04:30:47;;;;;;;27.13;18.17;;;;;;;;;;5031532;28;20059;-64
2021/06/12 04:33:13;;;;;;;29.45;20.13;;;;;;;;;;5031535;28;20056;-62
2021/06/12 04:35:39;;;;;;;29.27;19.77;;;;;;;;;;5031329;28;20029;-62
2021/06/12 04:38:05;;;;;;;27.75;18.75;;;;;;;;;;5013808;28;20038;-63
2021/06/12 04:40:33;;;;;;;27.02;19.42;;;;;;;;;;5013722;28;20069;-63
2021/06/12 04:42:59;;;;;;;27.13;18.67;;;;;;;;;;5031364;28;20029;-63
2021/06/12 04:45:25;;;;;;;29.08;19.83;;;;;;;;;;5013575;28;20061;-63
2021/06/12 04:47:51;;;;;;;26.60;18.17;;;;;;;;;;5031624;28;20025;-63
2021/06/12 04:50:17;;;;;;;28.27;18.52;;;;;;;;;;5031425;28;20021;-62
2021/06/12 04:52:44;;;;;;;29.40;19.08;;;;;;;;;;5031726;28;20018;-63
2021/06/12 04:55:11;;;;;;;26.95;18.50;;;;;;;;;;5031237;28;20111;-63
2021/06/12 04:57:38;;;;;;;26.90;18.88;;;;;;;;;;5031364;28;20026;-62
2021/06/12 05:00:08;;;;;;;26.20;18.25;;;;;;;;;;5031339;28;20485;-64
2021/06/12 05:02:34;;;;;;;26.20;16.83;;;;;;;;;;5033135;28;20099;-60
2021/06/12 05:05:00;;;;;;;28.05;18.00;;;;;;;;;;5034901;28;20033;-64
2021/06/12 05:07:26;;;;;;;26.95;17.65;;;;;;;;;;5035440;28;20063;-63
2021/06/12 05:09:53;;;;;;;26.92;18.05;;;;;;;;;;5017656;28;20018;-65
2021/06/12 05:12:20;;;;;;;27.63;18.42;;;;;;;;;;5035124;28;20022;-62
2021/06/12 05:14:48;;;;;;;25.75;17.85;;;;;;;;;;5017220;28;20068;-64
2021/06/12 05:17:16;;;;;;;27.58;19.20;;;;;;;;;;5035201;28;20018;-63
2021/06/12 05:19:42;;;;;;;26.02;15.82;;;;;;;;;;5035134;28;20064;-62
2021/06/12 05:22:08;;;;;;;27.33;18.95;;;;;;;;;;5034892;28;20053;-63
2021/06/12 05:24:35;;;;;;;24.67;16.42;;;;;;;;;;5034680;28;20433;-63
2021/06/12 05:27:01;;;;;;;24.50;17.00;;;;;;;;;;5034756;28;20048;-62
2021/06/12 05:29:28;;;;;;;25.92;15.85;;;;;;;;;;5034903;28;20091;-62
2021/06/12 05:31:54;;;;;;;23.75;16.40;;;;;;;;;;5034714;28;20025;-62
2021/06/12 05:34:20;;;;;;;23.42;16.65;;;;;;;;;;5017028;28;20026;-62
2021/06/12 05:36:46;;;;;;;25.63;17.33;;;;;;;;;;5034862;28;20096;-62
2021/06/12 05:39:12;;;;;;;24.13;15.57;;;;;;;;;;5016820;28;20572;-62
2021/06/12 05:41:39;;;;;;;24.20;16.20;;;;;;;;;;5034739;28;20157;-63
2021/06/12 05:44:05;;;;;;;24.10;15.57;;;;;;;;;;5034388;28;20014;-63
2021/06/12 05:46:31;;;;;;;25.42;15.98;;;;;;;;;;5035488;28;20071;-63
2021/06/12 05:48:59;;;;;;;23.90;15.45;;;;;;;;;;5033507;28;20100;-63
2021/06/12 05:51:25;;;;;;;26.48;16.75;;;;;;;;;;5053723;28;20021;-62
2021/06/12 05:53:52;;;;;;;22.80;14.65;;;;;;;;;;5036642;28;20028;-62
2021/06/12 05:56:18;;;;;;;24.10;15.68;;;;;;;;;;5030915;28;20057;-62
2021/06/12 05:58:44;;;;;;;23.88;15.82;;;;;;;;;;5023949;28;20401;-63
2021/06/12 06:01:12;;;;;;;25.15;15.60;;;;;;;;;;5016540;28;20021;-60
2021/06/12 06:03:38;;;;;;;23.55;16.10;;;;;;;;;;5033913;28;20037;-61
2021/06/12 06:06:06;;;;;;;22.30;14.93;;;;;;;;;;5033585;28;20378;-63
2021/06/12 06:08:32;;;;;;;23.30;15.25;;;;;;;;;;5030910;28;20018;-62
2021/06/12 06:10:58;;;;;;;23.17;14.07;;;;;;;;;;5023849;28;20052;-62
2021/06/12 06:13:24;;;;;;;23.15;14.90;;;;;;;;;;5030527;28;20032;-62
2021/06/12 06:15:50;;;;;;;24.25;14.90;;;;;;;;;;5022412;28;20036;-63
2021/06/12 06:18:16;;;;;;;22.80;14.73;;;;;;;;;;5028229;28;20112;-62
2021/06/12 06:20:43;;;;;;;22.05;15.05;;;;;;;;;;5016510;28;20032;-63
2021/06/12 06:23:09;;;;;;;22.40;15.35;;;;;;;;;;5020552;28;20136;-62
2021/06/12 06:25:35;;;;;;;23.90;16.25;;;;;;;;;;5014123;28;20076;-62
2021/06/12 06:28:01;;;;;;;24.65;15.23;;;;;;;;;;5029812;28;20022;-62
2021/06/12 06:30:27;;;;;;;25.98;16.08;;;;;;;;;;5014283;28;20026;-62
2021/06/12 06:32:53;;;;;;;25.60;17.88;;;;;;;;;;5015005;28;20018;-62
2021/06/12 06:35:19;;;;;;;26.83;16.52;;;;;;;;;;5014056;28;20021;-62
2021/06/12 06:37:45;;;;;;;23.48;15.38;;;;;;;;;;4996937;28;20125;-62
2021/06/12 06:40:12;;;;;;;26.00;16.08;;;;;;;;;;5014113;28;20133;-63
2021/06/12 06:42:38;;;;;;;24.98;16.13;;;;;;;;;;5014088;28;20032;-63
2021/06/12 06:45:04;;;;;;;26.75;16.70;;;;;;;;;;5013555;28;20488;-63
2021/06/12 06:47:30;;;;;;;27.05;16.85;;;;;;;;;;5013914;28;20026;-63
2021/06/12 06:49:56;;;;;;;24.80;16.45;;;;;;;;;;5013776;28;20399;-62
2021/06/12 06:52:22;;;;;;;29.92;18.02;;;;;;;;;;5013909;28;20025;-62
2021/06/12 06:54:49;;;;;;;26.00;17.73;;;;;;;;;;5013584;28;20050;-69
2021/06/12 06:57:15;;;;;;;27.23;18.80;;;;;;;;;;5013609;28;20026;-69
2021/06/12 06:59:41;;;;;;;27.58;17.42;;;;;;;;;;4996418;28;20044;-68
2021/06/12 07:02:07;;;;;;;25.23;16.98;;;;;;;;;;4995968;28;20085;-68
2021/06/12 07:04:33;;;;;;;24.55;16.55;;;;;;;;;;4995742;28;20026;-68
2021/06/12 07:06:59;;;;;;;25.02;17.48;;;;;;;;;;4996008;28;20026;-68
2021/06/12 07:09:25;;;;;;;27.50;18.80;;;;;;;;;;5013708;28;20030;-68
2021/06/12 07:11:52;;;;;;;27.05;17.95;;;;;;;;;;4995882;28;20221;-68
2021/06/12 07:14:18;;;;;;;27.95;16.92;;;;;;;;;;5013401;28;20429;-69
2021/06/12 07:16:44;;;;;;;26.40;18.60;;;;;;;;;;4995826;28;20084;-68
2021/06/12 07:19:10;;;;;;;26.00;18.25;;;;;;;;;;4996157;28;20029;-69
2021/06/12 07:21:36;;;;;;;27.02;18.77;;;;;;;;;;4995812;28;20025;-68
2021/06/12 07:24:02;;;;;;;32.95;17.83;;;;;;;;;;5013161;28;20096;-68
2021/06/12 07:26:28;;;;;;;26.25;18.45;;;;;;;;;;5012634;28;20028;-68
2021/06/12 07:28:54;;;;;;;30.67;19.17;;;;;;;;;;5013059;28;20393;-67
2021/06/12 07:31:20;;;;;;;27.13;18.88;;;;;;;;;;5013129;28;20105;-67
2021/06/12 07:33:46;;;;;;;26.95;18.25;;;;;;;;;;5013158;28;20106;-68
2021/06/12 07:36:12;;;;;;;28.85;18.02;;;;;;;;;;5013026;28;20053;-68
2021/06/12 07:38:38;;;;;;;25.13;17.70;;;;;;;;;;5012693;28;20037;-68
2021/06/12 07:41:04;;;;;;;27.27;19.02;;;;;;;;;;5012673;28;20029;-68
2021/06/12 07:43:30;;;;;;;25.95;19.15;;;;;;;;;;5012808;28;20107;-68
2021/06/12 07:45:56;;;;;;;25.08;18.58;;;;;;;;;;5012679;28;20030;-68
2021/06/12 07:48:22;;;;;;;25.20;17.50;;;;;;;;;;4994809;28;20400;-68
2021/06/12 07:50:48;;;;;;;26.02;18.00;;;;;;;;;;5012607;28;20026;-69
2021/06/12 07:53:14;;;;;;;28.02;19.95;;;;;;;;;;4995054;28;20014;-69
2021/06/12 07:55:40;;;;;;;26.67;20.58;;;;;;;;;;4994538;28;20026;-69
2021/06/12 07:58:06;;;;;;;28.38;19.42;;;;;;;;;;5012671;28;20100;-70
2021/06/12 08:00:32;;;;;;;26.35;19.52;;;;;;;;;;5012589;28;20026;-69
2021/06/12 08:02:58;;;;;;;24.70;18.58;;;;;;;;;;4994783;28;20036;-69
2021/06/12 08:05:25;;;;;;;29.42;20.10;;;;;;;;;;5012294;28;20393;-69
2021/06/12 08:07:51;;;;;;;27.45;20.02;;;;;;;;;;5012645;28;20021;-70
2021/06/12 08:10:17;;;;;;;35.92;20.73;;;;;;;;;;5012396;28;20021;-69
2021/06/12 08:12:45;;;;;;;25.00;19.92;;;;;;;;;;4994681;28;20026;-69
2021/06/12 08:15:11;;;;;;;28.55;20.50;;;;;;;;;;5012407;28;20038;-68
2021/06/12 08:17:37;;;;;;;27.60;19.25;;;;;;;;;;5012067;28;20057;-68
2021/06/12 08:20:04;;;;;;;26.05;18.85;;;;;;;;;;4994618;28;20080;-69
2021/06/12 08:22:30;;;;;;;27.35;20.08;;;;;;;;;;4994504;28;20030;-68
2021/06/12 08:24:56;;;;;;;26.73;19.00;;;;;;;;;;5011824;28;20018;-68
2021/06/12 08:27:22;;;;;;;27.20;18.90;;;;;;;;;;5012237;28;20092;-68
2021/06/12 08:29:49;;;;;;;27.08;19.05;;;;;;;;;;5012207;28;20053;-68
2021/06/12 08:32:15;;;;;;;27.70;19.98;;;;;;;;;;4994316;28;20109;-66
2021/06/12 08:34:41;;;;;;;24.27;17.92;;;;;;;;;;4993977;28;20091;-64
2021/06/12 08:37:07;;;;;;;24.70;18.65;;;;;;;;;;4993931;28;20109;-65
2021/06/12 08:39:33;;;;;;;26.58;18.83;;;;;;;;;;4994160;28;20030;-63
2021/06/12 08:41:59;;;;;;;22.90;17.58;;;;;;;;;;5012035;28;20026;-68
2021/06/12 08:44:26;;;;;;;23.90;17.65;;;;;;;;;;4993989;28;20125;-66
2021/06/12 08:46:52;;;;;;;23.10;17.08;;;;;;;;;;5011793;28;20034;-68
2021/06/12 08:49:18;;;;;;;24.38;18.25;;;;;;;;;;4994160;28;20018;-68
2021/06/12 08:51:45;;;;;;;23.00;17.15;;;;;;;;;;4994155;28;20049;-68
2021/06/12 08:54:18;;;;;;;23.25;16.70;;;;;;;;;;4994211;28;20046;-70
2021/06/12 08:56:46;;;;;;;24.05;16.75;;;;;;;;;;5012006;28;20033;-70
2021/06/12 08:59:12;;;;;;;23.67;17.48;;;;;;;;;;5012215;28;20026;-69
2021/06/12 09:01:39;;;;;;;21.48;15.98;;;;;;;;;;4998397;28;20049;-70
2021/06/12 09:04:05;;;;;;;21.80;15.13;;;;;;;;;;5021247;28;20052;-69
2021/06/12 09:06:31;;;;;;;22.75;16.02;;;;;;;;;;5021571;28;20026;-69
2021/06/12 09:09:00;;;;;;;20.58;15.00;;;;;;;;;;5022038;28;20068;-69
2021/06/12 09:11:26;;;;;;;21.88;15.00;;;;;;;;;;5021664;28;20021;-69
2021/06/12 09:13:54;;;;;;;22.40;15.27;;;;;;;;;;5029916;28;20085;-69
2021/06/12 09:16:21;;;;;;;23.00;16.10;;;;;;;;;;5021313;28;20022;-69
2021/06/12 09:18:48;;;;;;;21.50;14.98;;;;;;;;;;5013839;28;20029;-69
2021/06/12 09:21:26;;;;;;;25.58;15.88;;;;;;;;;;5031775;28;20029;-69
2021/06/12 09:23:53;;;;;;;22.85;14.60;;;;;;;;;;5031438;28;20400;-70
2021/06/12 09:26:20;;;;;;;21.35;14.13;;;;;;;;;;5031530;28;20032;-68
2021/06/12 09:28:47;;;;;;;20.20;14.65;;;;;;;;;;5031707;28;20057;-70
2021/06/12 09:31:20;;;;;;;23.23;15.23;;;;;;;;;;5031478;28;20026;-69
2021/06/12 09:33:47;;;;;;;21.33;14.43;;;;;;;;;;5031424;28;20432;-70
2021/06/12 09:36:13;;;;;;;22.58;15.05;;;;;;;;;;5031648;28;20389;-71
2021/06/12 09:38:41;;;;;;;23.90;14.82;;;;;;;;;;5030229;28;20033;-66
2021/06/12 09:41:23;;;;;;;21.00;13.82;;;;;;;;;;5030133;28;20022;-62
2021/06/12 09:43:49;;;;;;;21.77;13.23;;;;;;;;;;5030970;28;20393;-60
2021/06/12 09:46:38;;;;;;;21.63;14.63;;;;;;;;;;5012622;28;20456;-62
2021/06/12 09:49:05;;;;;;;19.02;12.77;;;;;;;;;;5032092;28;20032;-61
2021/06/12 09:51:32;;;;;;;20.23;12.25;;;;;;;;;;5034483;28;20032;-62
2021/06/12 09:53:59;;;;;;;18.52;12.20;;;;;;;;;;5034548;28;20028;-62
2021/06/12 09:56:25;;;;;;;18.20;11.02;;;;;;;;;;5034555;28;20022;-60
2021/06/12 09:58:52;;;;;;;17.00;10.85;;;;;;;;;;5035211;28;20028;-60
2021/06/12 10:01:20;;;;;;;16.25;9.68;;;;;;;;;;5016997;28;20553;-60
2021/06/12 10:03:47;;;;;;;20.77;11.70;;;;;;;;;;5034453;28;20513;-61
2021/06/12 10:06:23;;;;;;;16.40;10.48;;;;;;;;;;5034055;28;20025;-61
2021/06/12 10:08:49;;;;;;;17.70;11.70;;;;;;;;;;5034408;28;20485;-61
2021/06/12 10:11:16;;;;;;;18.98;12.02;;;;;;;;;;5034678;28;20029;-61
2021/06/12 10:13:46;;;;;;;17.52;12.00;;;;;;;;;;5034091;28;20104;-59
2021/06/12 10:16:13;;;;;;;16.98;11.73;;;;;;;;;;5016151;28;20033;-62
2021/06/12 10:18:40;;;;;;;18.33;11.70;;;;;;;;;;5034202;28;20148;-61
2021/06/12 10:21:06;;;;;;;17.25;11.68;;;;;;;;;;5034245;28;20033;-61
2021/06/12 10:23:33;;;;;;;17.83;11.43;;;;;;;;;;5033939;28;20036;-61
2021/06/12 10:25:59;;;;;;;17.63;11.48;;;;;;;;;;5033727;28;20440;-61
2021/06/12 10:28:25;;;;;;;17.75;11.90;;;;;;;;;;5016868;28;20036;-61
2021/06/12 10:30:51;;;;;;;19.02;11.30;;;;;;;;;;5033813;28;20079;-60
2021/06/12 10:33:18;;;;;;;21.60;11.70;;;;;;;;;;5033826;28;20030;-61
2021/06/12 10:35:44;;;;;;;18.73;11.68;;;;;;;;;;5033398;28;20022;-61
2021/06/12 10:38:30;;;;;;;21.44;12.46;;;;;;;;;;4977549;28;10001322;-59
2021/06/12 10:40:57;;;;;;;17.40;11.73;;;;;;;;;;5011554;28;20604;-59
2021/06/12 10:43:25;;;;;;;24.10;11.95;;;;;;;;;;5011127;28;20029;-59
2021/06/12 10:46:21;;;;;;;19.13;11.77;;;;;;;;;;5010691;28;20025;-59
2021/06/12 10:48:52;;;;;;;18.42;11.63;;;;;;;;;;4994693;28;20030;-59
2021/06/12 10:51:27;;;;;;;17.42;11.90;;;;;;;;;;5011024;28;20034;-57
2021/06/12 10:56:48;;;;;;;17.88;11.32;;;;;;;;;;5011174;28;20037;-61
2021/06/12 10:59:34;;;;;;;22.80;12.80;;;;;;;;;;5010627;28;20037;-60
2021/06/12 11:02:07;;;;;;;25.30;12.25;;;;;;;;;;4666415;28;10000429;-62
2021/06/12 11:05:07;;;;;;;19.10;11.40;;;;;;;;;;5012128;28;20033;-62
2021/06/12 11:07:37;;;;;;;16.08;10.25;;;;;;;;;;5012670;28;20018;-65
2021/06/12 11:10:12;;;;;;;17.65;11.27;;;;;;;;;;5012601;28;20109;-63
2021/06/12 11:12:45;;;;;;;19.13;11.35;;;;;;;;;;5013341;28;20049;-64
2021/06/12 11:15:30;;;;;;;17.15;10.77;;;21.60;99.90;;;;;;4995863;28;20030;-64
2021/06/12 11:18:15;;;;;;;17.23;10.77;;;;;;;;;;5012977;28;20026;-63
2021/06/12 11:20:45;;;;;;;16.77;10.98;;;22.40;99.90;;;;;;5013161;28;20057;-62
2021/06/12 11:23:16;;;;;;;18.55;10.88;;;23.30;99.90;;;;;;5012947;28;20029;-64
2021/06/12 11:25:47;;;;;;;16.50;11.75;;;;;;;;;;5012482;28;20108;-64
2021/06/12 11:28:22;;;;;;;17.50;11.55;;;23.20;99.90;;;;;;5013876;28;20026;-67
2021/06/12 11:30:49;;;;;;;17.48;12.15;;;;;;;;;;5013811;28;20018;-66
2021/06/12 11:33:15;;;;;;;17.05;11.90;;;;;;;;;;5014091;28;20022;-68
2021/06/12 11:35:52;;;;;;;19.90;12.32;;;;;;;;;;5013602;28;20026;-68
2021/06/12 11:38:32;;;;;;;18.13;11.68;;;;;;;;;;5026074;28;20024;-66
2021/06/12 11:41:00;;;;;;;18.50;11.70;;;;;;;;;;5032969;28;20033;-67
2021/06/12 11:43:38;;;;;;;16.95;12.35;;;;;;;;;;5033605;28;20025;-67
2021/06/12 11:46:07;;;;;;;17.52;11.80;;;;;;;;;;5024205;28;20358;-62
2021/06/12 11:48:52;;;;;;;17.33;11.85;;;24.50;99.90;;;;;;5012342;28;20083;-62
2021/06/12 11:51:20;;;;;;;17.40;12.88;;;;;;;;;;5020308;28;20115;-62
2021/06/12 11:54:05;;;;;;;16.70;11.80;;;23.80;99.90;;;;;;5021140;28;20014;-63
2021/06/12 11:56:37;;;;;;;19.80;12.30;;;;;;;;;;5011656;28;20033;-63
2021/06/12 11:59:04;;;;;;;17.00;12.25;;;23.90;99.70;;;;;;5020935;28;20022;-64
2021/06/12 12:01:47;;;;;;;19.08;12.98;;;25.30;98.60;;;;;;5021170;28;20477;-64
2021/06/12 12:04:12;;;;;;;17.45;13.60;;;25.50;98.10;;;;;;5029776;28;20164;-63
2021/06/12 12:06:43;;;;;;;19.90;13.68;;;25.80;96.90;;;;;;5031722;28;20104;-63
2021/06/12 12:09:09;;;;;;;16.75;13.82;;;25.60;96.80;;;;;;5014367;28;20017;-63
2021/06/12 12:11:35;;;;;;;18.10;14.10;;;26.20;96.50;;;;;;5023616;28;20144;-65
2021/06/12 12:14:03;;;;;;;17.52;13.70;;;26.10;95.60;;;;;;5012440;28;20151;-66
2021/06/12 12:16:30;;;;;;;17.83;13.55;;;;;;;;;;5012267;28;20030;-65
2021/06/12 12:18:59;;;;;;;17.05;14.40;;;26.40;95.20;;;;;;5012083;28;20030;-65
2021/06/12 12:21:34;;;;;;;;;;;26.90;95.40;;;;;;5011937;28;20081;-58
2021/06/12 12:24:02;;;;;;;18.85;14.40;;;;;;;;;;4993541;28;19905;-64
2021/06/12 12:26:28;;;;;;;20.42;13.85;;;;;;;;;;5026939;28;20504;-62
2021/06/12 12:29:10;;;;;;;17.92;14.52;;;;;;;;;;5011847;28;20397;-65
2021/06/12 12:31:44;;;;;;;18.33;13.90;;;;;;;;;;5011678;28;20064;-63
2021/06/12 12:34:10;;;;;;;18.50;13.60;;;;;;;;;;5026545;28;20018;-63
2021/06/12 12:36:44;;;;;;;20.42;14.65;;;;;;;;;;5012387;28;20025;-62
2021/06/12 12:39:10;;;;;;;17.08;13.45;;;;;;;;;;5031718;28;20025;-63
2021/06/12 12:41:37;;;;;;;17.63;13.45;;;;;;;;;;5031254;28;20036;-64
2021/06/12 12:44:05;;;;;;;18.23;13.75;;;;;;;;;;5031281;28;20026;-63
2021/06/12 12:46:31;;;;;;;19.95;14.82;;;;;;;;;;5031102;28;20053;-64
2021/06/12 12:48:58;;;;;;;18.48;14.20;;;;;;;;;;5013456;28;20022;-68
2021/06/12 12:51:27;;;;;;;18.15;14.50;;;;;;;;;;5013464;28;20028;-62
2021/06/12 12:53:53;;;;;;;20.30;14.35;;;;;;;;;;5013375;28;20018;-64
2021/06/12 12:56:19;;;;;;;18.08;13.65;;;;;;;;;;5030615;28;20026;-63
2021/06/12 12:58:55;;;;;;;18.17;14.40;;;;;;;;;;5031252;28;20147;-63
2021/06/12 13:01:21;;;;;;;17.30;13.60;;;;;;;;;;5031213;28;20026;-67
2021/06/12 13:03:52;;;;;;;22.15;14.30;;;;;;;;;;5030979;28;20409;-64
2021/06/12 13:06:37;;;;;;;18.70;13.63;;;;;;;;;;5030703;28;20036;-63
2021/06/12 13:09:18;;;;;;;19.90;14.50;;;26.30;94.80;;;;;;5030777;28;20025;-62
2021/06/12 13:11:54;;;;;;;19.80;14.95;;;26.00;92.80;;;;;;5030983;28;20024;-66
2021/06/12 13:14:28;;;;;;;18.83;14.73;;;25.40;92.80;;;;;;5030647;28;20540;-66
2021/06/12 13:17:18;;;;;;;20.13;14.85;;;;;;;;;;4320859;28;10000902;-63
2021/06/12 13:19:50;;;;;;;18.75;13.70;;;;;;;;;;5018151;28;20509;-63
2021/06/12 13:22:29;;;;;;;19.35;14.38;;;;;;;;;;5016696;28;20036;-63
2021/06/12 13:24:55;;;;;;;;;;;;;;;;;;5022332;28;20621;-63
2021/06/12 13:27:34;;;;;;;21.08;13.90;;;;;;;;;;5012671;28;19999;-69
2021/06/12 13:30:00;;;;;;;18.85;13.98;;;;;;;;;;5004851;28;20030;-63
2021/06/12 13:32:30;;;;;;;19.60;14.55;;;26.00;92.60;;;;;;5020720;28;20018;-65
2021/06/12 13:34:56;;;;;;;17.35;13.82;;;;;;;;;;5013228;28;20464;-67
2021/06/12 13:37:22;;;;;;;16.88;14.07;;;;;;;;;;5017234;28;20056;-63
2021/06/12 13:39:56;;;;;;;17.20;14.55;;;24.80;93.20;;;;;;5002849;28;20056;-64
2021/06/12 13:42:22;;;;;;;21.08;13.82;;;;;;;;;;5002877;28;20392;-63
2021/06/12 13:45:02;;;;;;;16.90;13.02;;;;;;;;;;5025657;28;20112;-63
2021/06/12 13:47:28;;;;;;;19.30;14.00;;;;;;;;;;5025509;28;20105;-63
2021/06/12 13:49:54;;;;;;;17.77;13.10;;;;;;;;;;5021642;28;20022;-63
2021/06/12 13:52:20;;;;;;;18.80;14.35;;;;;;;;;;5019757;28;20022;-67
2021/06/12 13:54:46;;;;;;;20.33;14.00;;;;;;;;;;5013153;28;20026;-63
2021/06/12 13:57:17;;;;;;;17.75;13.63;;;;;;;;;;5014045;28;20026;-64
2021/06/12 13:59:43;;;;;;;19.48;14.35;;;;;;;;;;5014675;28;20122;-63
2021/06/12 14:02:08;;;;;;;18.02;13.40;;;;;;;;;;4996467;28;20171;-66
2021/06/12 14:04:37;;;;;;;16.95;13.52;;;;;;;;;;4996896;28;20486;-63
2021/06/12 14:07:03;;;;;;;;;;;;;;;;;;5014745;28;20049;-63
2021/06/12 14:09:29;;;;;;;20.27;14.13;;;;;;;;;;5014317;28;19924;-63
2021/06/12 14:11:55;;;;;;;20.15;13.80;;;;;;;;;;4996524;28;20018;-68
2021/06/12 14:14:21;;;;;;;16.85;12.55;;;;;;;;;;5014067;28;20018;-63
2021/06/12 14:16:47;;;;;;;20.50;12.88;;;;;;;;;;5013955;28;20097;-63
2021/06/12 14:19:13;;;;;;;18.95;12.70;;;;;;;;;;5014067;28;20029;-67